createdAt,value
2023-04-01T00:00:37.118Z,5.9
2023-04-01T00:02:50.865Z,5.9
2023-04-01T00:03:57.913Z,5.9
2023-04-01T00:05:05.119Z,5.9
2023-04-01T00:06:12.192Z,5.9
2023-04-01T00:07:18.655Z,5.9
2023-04-01T00:08:25.914Z,5.9
2023-04-01T00:09:32.880Z,5.9
2023-04-01T00:10:40.238Z,5.9
2023-04-01T00:11:47.231Z,5.9
2023-04-01T00:12:53.866Z,5.9
2023-04-01T00:14:00.878Z,5.9
2023-04-01T00:15:07.978Z,5.9
2023-04-01T00:16:21.717Z,5.9
2023-04-01T00:17:22.211Z,5.8
2023-04-01T00:18:28.754Z,5.8
2023-04-01T00:19:35.898Z,5.8
2023-04-01T00:20:43.501Z,5.8
2023-04-01T00:21:50.316Z,5.8
2023-04-01T00:22:57.204Z,5.7
2023-04-01T00:24:03.866Z,5.7
2023-04-01T00:25:10.768Z,5.7
2023-04-01T00:26:18.056Z,5.7
2023-04-01T00:27:25.189Z,5.7
2023-04-01T00:28:32.156Z,5.7
2023-04-01T00:29:38.821Z,5.7
2023-04-01T00:30:45.821Z,5.7
2023-04-01T00:31:52.978Z,5.7
2023-04-01T00:33:00.242Z,5.7
2023-04-01T00:34:07.098Z,5.7
2023-04-01T00:35:13.870Z,5.7
2023-04-01T00:36:20.827Z,5.6
2023-04-01T00:37:27.993Z,5.6
2023-04-01T00:38:35.086Z,5.6
2023-04-01T00:39:41.600Z,5.6
2023-04-01T00:40:48.692Z,5.6
2023-04-01T00:41:55.874Z,5.6
2023-04-01T00:43:03.033Z,5.6
2023-04-01T00:44:10.090Z,5.6
2023-04-01T00:45:16.701Z,5.6
2023-04-01T00:46:23.749Z,5.6
2023-04-01T00:47:30.917Z,5.6
2023-04-01T00:48:38.106Z,5.6
2023-04-01T00:49:45.027Z,5.6
2023-04-01T00:50:51.723Z,5.6
2023-04-01T00:51:58.785Z,5.6
2023-04-01T00:53:05.889Z,5.6
2023-04-01T00:54:13.008Z,5.6
2023-04-01T00:55:20.027Z,5.6
2023-04-01T00:56:26.756Z,5.6
2023-04-01T00:57:33.945Z,5.6
2023-04-01T00:58:40.826Z,5.5
2023-04-01T00:59:48.102Z,5.6
2023-04-01T01:00:55.158Z,5.5
2023-04-01T01:02:02.321Z,5.5
2023-04-01T01:03:08.811Z,5.5
2023-04-01T01:04:15.921Z,5.5
2023-04-01T01:06:30.124Z,5.5
2023-04-01T01:07:36.798Z,5.5
2023-04-01T01:08:43.896Z,5.5
2023-04-01T01:09:50.952Z,5.5
2023-04-01T01:10:58.078Z,5.4
2023-04-01T01:12:05.182Z,5.5
2023-04-01T01:13:11.727Z,5.4
2023-04-01T01:14:18.736Z,5.5
2023-04-01T01:15:25.975Z,5.4
2023-04-01T01:16:33.017Z,5.4
2023-04-01T01:17:40.288Z,5.4
2023-04-01T01:18:46.851Z,5.4
2023-04-01T01:21:00.934Z,5.4
2023-04-01T01:22:08.156Z,5.4
2023-04-01T01:23:15.096Z,5.4
2023-04-01T01:24:22.210Z,5.4
2023-04-01T01:25:28.885Z,5.4
2023-04-01T01:26:36.038Z,5.4
2023-04-01T01:27:43.086Z,5.4
2023-04-01T01:28:50.199Z,5.4
2023-04-01T01:29:56.738Z,5.4
2023-04-01T01:31:03.972Z,5.4
2023-04-01T01:32:10.865Z,5.4
2023-04-01T01:33:18.027Z,5.4
2023-04-01T01:34:25.220Z,5.4
2023-04-01T01:35:32.030Z,5.4
2023-04-01T01:36:39.106Z,5.4
2023-04-01T01:37:45.913Z,5.4
2023-04-01T01:38:53.049Z,5.4
2023-04-01T01:40:00.178Z,5.4
2023-04-01T01:41:07.577Z,5.4
2023-04-01T01:42:13.817Z,5.4
2023-04-01T01:43:20.989Z,5.4
2023-04-01T01:44:28.061Z,5.4
2023-04-01T01:45:35.132Z,5.4
2023-04-01T01:46:41.789Z,5.4
2023-04-01T01:47:49.264Z,5.4
2023-04-01T01:48:56.204Z,5.4
2023-04-01T01:50:03.142Z,5.4
2023-04-01T01:51:10.097Z,5.4
2023-04-01T01:52:17.285Z,5.4
2023-04-01T01:53:23.984Z,5.4
2023-04-01T01:54:30.974Z,5.4
2023-04-01T01:55:38.086Z,5.4
2023-04-01T01:56:45.159Z,5.3
2023-04-01T01:57:51.694Z,5.3
2023-04-01T01:58:58.883Z,5.3
2023-04-01T02:00:06.026Z,5.3
2023-04-01T02:01:13.188Z,5.3
2023-04-01T02:02:20.216Z,5.3
2023-04-01T02:03:26.773Z,5.3
2023-04-01T02:04:33.912Z,5.2
2023-04-01T02:05:40.907Z,5.2
2023-04-01T02:06:48.037Z,5.3
2023-04-01T02:07:55.298Z,5.3
2023-04-01T02:10:08.816Z,5.2
2023-04-01T02:11:15.956Z,5.2
2023-04-01T02:12:23.164Z,5.3
2023-04-01T02:13:30.289Z,5.2
2023-04-01T02:14:36.736Z,5.2
2023-04-01T02:15:43.894Z,5.2
2023-04-01T02:16:51.025Z,5.3
2023-04-01T02:17:58.277Z,5.2
2023-04-01T02:19:04.771Z,5.2
2023-04-01T02:20:11.889Z,5.2
2023-04-01T02:21:18.940Z,5.2
2023-04-01T02:22:25.930Z,5.2
2023-04-01T02:23:33.064Z,5.2
2023-04-01T02:24:39.840Z,5.2
2023-04-01T02:25:46.851Z,5.2
2023-04-01T02:26:53.936Z,5.2
2023-04-01T02:28:01.579Z,5.2
2023-04-01T02:29:08.187Z,5.2
2023-04-01T02:30:14.821Z,5.2
2023-04-01T02:31:21.921Z,5.2
2023-04-01T02:32:28.963Z,5.2
2023-04-01T02:33:35.989Z,5.2
2023-04-01T02:34:43.094Z,5.2
2023-04-01T02:35:49.678Z,5.1
2023-04-01T02:36:56.909Z,5.1
2023-04-01T02:38:03.889Z,5.1
2023-04-01T02:39:10.996Z,5.1
2023-04-01T02:40:18.122Z,5.1
2023-04-01T02:41:24.776Z,5.1
2023-04-01T02:42:31.880Z,5
2023-04-01T02:43:38.979Z,5
2023-04-01T02:44:46.062Z,5
2023-04-01T02:45:53.237Z,5
2023-04-01T02:46:59.701Z,5
2023-04-01T02:49:13.970Z,5
2023-04-01T02:50:21.106Z,5
2023-04-01T02:51:28.194Z,5
2023-04-01T02:52:34.702Z,4.9
2023-04-01T02:53:41.846Z,4.9
2023-04-01T02:54:48.947Z,4.9
2023-04-01T02:55:56.010Z,4.9
2023-04-01T02:57:03.167Z,4.9
2023-04-01T02:58:09.855Z,4.9
2023-04-01T02:59:16.949Z,4.9
2023-04-01T03:00:23.995Z,4.9
2023-04-01T03:01:31.028Z,4.8
2023-04-01T03:02:38.302Z,4.8
2023-04-01T03:03:44.757Z,4.8
2023-04-01T03:04:51.989Z,4.8
2023-04-01T03:05:58.895Z,4.7
2023-04-01T03:07:06.099Z,4.7
2023-04-01T03:08:13.125Z,4.7
2023-04-01T03:09:19.786Z,4.7
2023-04-01T03:10:26.820Z,4.7
2023-04-01T03:11:33.941Z,4.7
2023-04-01T03:13:48.199Z,4.6
2023-04-01T03:14:54.806Z,4.6
2023-04-01T03:16:01.925Z,4.6
2023-04-01T03:17:08.912Z,4.5
2023-04-01T03:18:16.169Z,4.5
2023-04-01T03:19:23.151Z,4.5
2023-04-01T03:20:29.698Z,4.5
2023-04-01T03:21:36.840Z,4.5
2023-04-01T03:22:44.066Z,4.5
2023-04-01T03:23:51.191Z,4.5
2023-04-01T03:24:58.208Z,4.4
2023-04-01T03:26:04.718Z,4.4
2023-04-01T03:27:11.902Z,4.4
2023-04-01T03:28:19.081Z,4.4
2023-04-01T03:29:26.163Z,4.4
2023-04-01T03:30:33.342Z,4.4
2023-04-01T03:31:40.236Z,4.4
2023-04-01T03:32:46.967Z,4.3
2023-04-01T03:33:54.064Z,4.3
2023-04-01T03:35:01.153Z,4.3
2023-04-01T03:36:08.276Z,4.3
2023-04-01T03:37:14.873Z,4.3
2023-04-01T03:38:22.082Z,4.3
2023-04-01T03:39:29.022Z,4.3
2023-04-01T03:40:36.058Z,4.3
2023-04-01T03:41:43.171Z,4.3
2023-04-01T03:42:49.801Z,4.3
2023-04-01T03:43:56.956Z,4.3
2023-04-01T03:45:03.982Z,4.3
2023-04-01T03:46:11.056Z,4.3
2023-04-01T03:47:18.268Z,4.3
2023-04-01T03:48:24.918Z,4.3
2023-04-01T03:49:31.996Z,4.3
2023-04-01T03:50:39.367Z,4.3
2023-04-01T03:51:46.097Z,4.3
2023-04-01T03:52:52.672Z,4.3
2023-04-01T03:53:59.812Z,4.3
2023-04-01T03:55:06.969Z,4.3
2023-04-01T03:56:14.107Z,4.3
2023-04-01T03:57:21.229Z,4.3
2023-04-01T03:58:27.808Z,4.3
2023-04-01T03:59:34.784Z,4.3
2023-04-01T04:00:42.351Z,4.3
2023-04-01T04:01:48.973Z,4.3
2023-04-01T04:02:56.277Z,4.3
2023-04-01T04:04:02.944Z,4.3
2023-04-01T04:05:09.867Z,4.3
2023-04-01T04:06:16.981Z,4.3
2023-04-01T04:07:24.088Z,4.3
2023-04-01T04:08:31.218Z,4.3
2023-04-01T04:09:37.774Z,4.3
2023-04-01T04:10:44.994Z,4.3
2023-04-01T04:11:52.000Z,4.3
2023-04-01T04:12:58.987Z,4.3
2023-04-01T04:14:06.306Z,4.3
2023-04-01T04:15:12.928Z,4.2
2023-04-01T04:17:27.020Z,4.2
2023-04-01T04:18:34.201Z,4.2
2023-04-01T04:19:41.218Z,4.2
2023-04-01T04:20:47.752Z,4.2
2023-04-01T04:21:54.914Z,4.2
2023-04-01T04:23:02.050Z,4.2
2023-04-01T04:24:09.146Z,4.2
2023-04-01T04:25:16.201Z,4.2
2023-04-01T04:26:22.805Z,4.2
2023-04-01T04:27:29.889Z,4.3
2023-04-01T04:28:37.005Z,4.3
2023-04-01T04:29:44.131Z,4.3
2023-04-01T04:30:51.244Z,4.3
2023-04-01T04:31:57.830Z,4.3
2023-04-01T04:33:04.931Z,4.3
2023-04-01T04:34:12.226Z,4.3
2023-04-01T04:35:19.531Z,4.3
2023-04-01T04:36:26.216Z,4.3
2023-04-01T04:37:32.856Z,4.3
2023-04-01T04:38:39.918Z,4.3
2023-04-01T04:39:47.055Z,4.3
2023-04-01T04:40:54.020Z,4.3
2023-04-01T04:42:01.133Z,4.3
2023-04-01T04:43:07.709Z,4.3
2023-04-01T04:44:14.986Z,4.3
2023-04-01T04:45:22.032Z,4.3
2023-04-01T04:46:29.149Z,4.3
2023-04-01T04:47:36.288Z,4.3
2023-04-01T04:48:42.880Z,4.3
2023-04-01T04:49:50.026Z,4.3
2023-04-01T04:50:56.961Z,4.3
2023-04-01T04:52:04.292Z,4.2
2023-04-01T04:53:11.149Z,4.2
2023-04-01T04:54:17.772Z,4.2
2023-04-01T04:55:24.980Z,4.2
2023-04-01T04:56:32.116Z,4.2
2023-04-01T04:57:39.160Z,4.2
2023-04-01T04:58:46.294Z,4.2
2023-04-01T04:59:52.758Z,4.2
2023-04-01T05:00:59.916Z,4.1
2023-04-01T05:02:07.058Z,4.1
2023-04-01T05:03:14.236Z,4.1
2023-04-01T05:04:21.380Z,4.1
2023-04-01T05:05:27.851Z,4.1
2023-04-01T05:06:34.971Z,4.1
2023-04-01T05:07:42.044Z,4.1
2023-04-01T05:08:49.224Z,4.1
2023-04-01T05:09:56.296Z,4.1
2023-04-01T05:11:02.863Z,4.1
2023-04-01T05:12:09.983Z,4.1
2023-04-01T05:13:17.049Z,4.1
2023-04-01T05:14:24.184Z,4.1
2023-04-01T05:15:31.660Z,4.1
2023-04-01T05:16:37.850Z,4.1
2023-04-01T05:17:45.017Z,4.1
2023-04-01T05:18:52.100Z,4.1
2023-04-01T05:21:07.820Z,4.1
2023-04-01T05:22:12.860Z,4.1
2023-04-01T05:23:19.867Z,4.1
2023-04-01T05:24:27.141Z,4.1
2023-04-01T05:25:34.412Z,4.1
2023-04-01T05:26:40.789Z,4.1
2023-04-01T05:27:47.958Z,4.1
2023-04-01T05:28:54.968Z,4.1
2023-04-01T05:30:02.128Z,4.1
2023-04-01T05:31:09.237Z,4.1
2023-04-01T05:32:15.714Z,4.1
2023-04-01T05:33:23.016Z,4
2023-04-01T05:34:29.926Z,4
2023-04-01T05:35:37.199Z,4
2023-04-01T05:36:44.168Z,4
2023-04-01T05:37:50.685Z,4
2023-04-01T05:38:58.314Z,4
2023-04-01T05:40:04.985Z,4
2023-04-01T05:41:11.995Z,4
2023-04-01T05:42:19.182Z,4
2023-04-01T05:43:25.724Z,4
2023-04-01T05:45:40.051Z,4
2023-04-01T05:46:47.008Z,4
2023-04-01T05:47:54.173Z,4
2023-04-01T05:49:00.886Z,4
2023-04-01T05:50:07.961Z,4
2023-04-01T05:51:15.067Z,4
2023-04-01T05:52:22.154Z,4
2023-04-01T05:53:29.195Z,4
2023-04-01T05:54:35.814Z,4
2023-04-01T05:55:42.902Z,4
2023-04-01T05:56:50.041Z,4
2023-04-01T05:57:57.164Z,4
2023-04-01T05:59:04.264Z,4
2023-04-01T06:00:10.890Z,4
2023-04-01T06:01:17.808Z,3.9
2023-04-01T06:02:25.030Z,3.9
2023-04-01T06:03:32.252Z,3.9
2023-04-01T06:04:39.265Z,3.9
2023-04-01T06:05:45.775Z,4
2023-04-01T06:06:53.025Z,3.9
2023-04-01T06:07:59.987Z,3.9
2023-04-01T06:09:07.098Z,3.9
2023-04-01T06:10:14.186Z,3.9
2023-04-01T06:11:20.806Z,3.9
2023-04-01T06:12:27.970Z,3.9
2023-04-01T06:13:35.116Z,3.9
2023-04-01T06:14:42.173Z,3.9
2023-04-01T06:15:49.140Z,4
2023-04-01T06:16:55.953Z,4
2023-04-01T06:18:03.059Z,4
2023-04-01T06:19:09.932Z,4
2023-04-01T06:20:17.207Z,4
2023-04-01T06:21:24.343Z,4
2023-04-01T06:22:30.818Z,4
2023-04-01T06:24:45.140Z,4
2023-04-01T06:25:52.235Z,4.1
2023-04-01T06:26:59.241Z,4.1
2023-04-01T06:28:07.218Z,4.1
2023-04-01T06:29:12.955Z,4.1
2023-04-01T06:30:20.006Z,4.1
2023-04-01T06:31:27.238Z,4.1
2023-04-01T06:32:34.308Z,4.1
2023-04-01T06:33:40.910Z,4.1
2023-04-01T06:34:47.858Z,4.1
2023-04-01T06:35:55.074Z,4.1
2023-04-01T06:37:02.214Z,4.1
2023-04-01T06:38:09.290Z,4.1
2023-04-01T06:39:16.119Z,4.1
2023-04-01T06:40:22.988Z,4.1
2023-04-01T06:41:30.005Z,4.1
2023-04-01T06:42:37.236Z,4.1
2023-04-01T06:43:44.385Z,4.1
2023-04-01T06:44:50.768Z,4.2
2023-04-01T06:45:58.053Z,4.2
2023-04-01T06:47:05.117Z,4.3
2023-04-01T06:48:12.340Z,4.3
2023-04-01T06:49:19.417Z,4.3
2023-04-01T06:50:25.940Z,4.3
2023-04-01T06:51:33.005Z,4.3
2023-04-01T06:52:39.992Z,4.4
2023-04-01T06:53:47.559Z,4.5
2023-04-01T06:54:54.582Z,4.5
2023-04-01T06:56:00.795Z,4.6
2023-04-01T06:57:08.110Z,4.7
2023-04-01T06:58:15.030Z,4.7
2023-04-01T06:59:22.385Z,4.7
2023-04-01T07:00:32.889Z,4.7
2023-04-01T07:01:35.987Z,4.7
2023-04-01T07:02:42.987Z,4.8
2023-04-01T07:03:50.081Z,4.8
2023-04-01T07:04:57.158Z,4.8
2023-04-01T07:06:03.736Z,4.8
2023-04-01T07:07:10.810Z,4.8
2023-04-01T07:08:17.900Z,4.9
2023-04-01T07:09:25.295Z,4.9
2023-04-01T07:10:32.319Z,4.9
2023-04-01T07:11:39.354Z,4.9
2023-04-01T07:13:53.152Z,5
2023-04-01T07:15:00.071Z,5
2023-04-01T07:16:07.397Z,5.1
2023-04-01T07:17:13.887Z,5.2
2023-04-01T07:18:20.820Z,5.3
2023-04-01T07:19:27.972Z,5.4
2023-04-01T07:20:35.057Z,5.6
2023-04-01T07:21:42.439Z,5.7
2023-04-01T07:22:49.362Z,5.9
2023-04-01T07:23:56.049Z,6
2023-04-01T07:25:02.956Z,6.2
2023-04-01T07:26:10.027Z,6.3
2023-04-01T07:28:23.900Z,6.4
2023-04-01T07:29:30.957Z,6.6
2023-04-01T07:30:38.163Z,6.8
2023-04-01T07:31:45.262Z,6.8
2023-04-01T07:32:52.272Z,7
2023-04-01T07:33:58.893Z,7
2023-04-01T07:35:05.869Z,7.1
2023-04-01T07:36:13.139Z,7.1
2023-04-01T07:37:20.163Z,7.3
2023-04-01T07:38:27.518Z,7.4
2023-04-01T07:39:33.991Z,7.5
2023-04-01T07:40:40.845Z,7.6
2023-04-01T07:41:47.957Z,7.7
2023-04-01T07:42:55.082Z,7.7
2023-04-01T07:44:02.346Z,7.7
2023-04-01T07:45:08.749Z,7.7
2023-04-01T07:46:16.587Z,7.7
2023-04-01T07:47:22.996Z,7.7
2023-04-01T07:48:30.059Z,7.8
2023-04-01T07:49:37.331Z,7.9
2023-04-01T07:50:43.813Z,7.9
2023-04-01T07:51:50.951Z,8
2023-04-01T07:52:58.179Z,8.1
2023-04-01T07:54:05.308Z,8.1
2023-04-01T07:55:12.474Z,8.1
2023-04-01T07:56:18.929Z,8.1
2023-04-01T07:57:25.976Z,8.1
2023-04-01T07:58:33.134Z,8.1
2023-04-01T07:59:40.129Z,8.1
2023-04-01T08:00:47.301Z,8.1
2023-04-01T08:01:53.882Z,8.1
2023-04-01T08:03:01.034Z,8.1
2023-04-01T08:04:08.321Z,8.1
2023-04-01T08:05:15.203Z,8.1
2023-04-01T08:06:22.231Z,8.2
2023-04-01T08:07:28.834Z,8.2
2023-04-01T08:08:35.932Z,8.3
2023-04-01T08:09:43.075Z,8.2
2023-04-01T08:10:50.219Z,8.2
2023-04-01T08:11:57.231Z,8.3
2023-04-01T08:13:03.928Z,8.4
2023-04-01T08:14:10.923Z,8.5
2023-04-01T08:15:18.075Z,8.6
2023-04-01T08:16:25.261Z,8.7
2023-04-01T08:17:32.410Z,8.8
2023-04-01T08:18:38.914Z,8.7
2023-04-01T08:19:45.966Z,8.7
2023-04-01T08:20:53.036Z,8.8
2023-04-01T08:22:00.145Z,8.8
2023-04-01T08:23:07.313Z,8.8
2023-04-01T08:24:13.951Z,8.8
2023-04-01T08:25:21.316Z,8.9
2023-04-01T08:26:28.099Z,8.8
2023-04-01T08:27:35.268Z,8.8
2023-04-01T08:28:42.303Z,8.8
2023-04-01T08:29:48.807Z,8.8
2023-04-01T08:32:03.268Z,8.9
2023-04-01T08:33:10.168Z,8.9
2023-04-01T08:34:16.791Z,9
2023-04-01T08:35:23.985Z,9.1
2023-04-01T08:36:31.043Z,9.1
2023-04-01T08:37:38.191Z,9.1
2023-04-01T08:38:45.274Z,9.1
2023-04-01T08:39:51.873Z,9.1
2023-04-01T08:42:05.966Z,9
2023-04-01T08:43:13.127Z,8.9
2023-04-01T08:44:20.300Z,8.9
2023-04-01T08:45:26.943Z,8.9
2023-04-01T08:46:33.864Z,8.9
2023-04-01T08:47:40.950Z,8.9
2023-04-01T08:48:48.125Z,8.9
2023-04-01T08:49:55.263Z,8.9
2023-04-01T08:51:01.860Z,8.9
2023-04-01T08:52:08.825Z,8.8
2023-04-01T08:53:16.061Z,8.7
2023-04-01T08:54:23.103Z,8.6
2023-04-01T08:55:30.260Z,8.6
2023-04-01T08:56:36.903Z,8.5
2023-04-01T08:57:43.946Z,8.4
2023-04-01T08:58:51.196Z,8.5
2023-04-01T08:59:58.184Z,8.4
2023-04-01T09:01:09.993Z,8.4
2023-04-01T09:02:11.929Z,8.5
2023-04-01T09:03:18.893Z,8.5
2023-04-01T09:04:26.091Z,8.5
2023-04-01T09:05:33.358Z,8.5
2023-04-01T09:06:40.287Z,8.6
2023-04-01T09:07:47.030Z,8.6
2023-04-01T09:08:54.006Z,8.6
2023-04-01T09:10:00.960Z,8.7
2023-04-01T09:11:08.194Z,8.8
2023-04-01T09:12:15.218Z,8.9
2023-04-01T09:13:21.943Z,8.9
2023-04-01T09:14:28.870Z,9.1
2023-04-01T09:15:36.430Z,9.1
2023-04-01T09:16:43.246Z,9.3
2023-04-01T09:17:50.323Z,9.3
2023-04-01T09:18:56.838Z,9.5
2023-04-01T09:20:03.999Z,9.5
2023-04-01T09:21:10.983Z,9.6
2023-04-01T09:22:18.221Z,9.7
2023-04-01T09:23:25.345Z,9.8
2023-04-01T09:24:31.928Z,9.8
2023-04-01T09:26:13.372Z,10
2023-04-01T09:26:46.024Z,10
2023-04-01T09:27:53.215Z,10
2023-04-01T09:29:00.248Z,10
2023-04-01T09:30:06.907Z,10.1
2023-04-01T09:31:13.911Z,10.1
2023-04-01T09:32:21.122Z,10.1
2023-04-01T09:33:28.267Z,10.3
2023-04-01T09:34:35.398Z,10.3
2023-04-01T09:35:42.041Z,10.4
2023-04-01T09:36:48.900Z,10.4
2023-04-01T09:37:56.148Z,10.3
2023-04-01T09:39:03.274Z,10.4
2023-04-01T09:40:10.240Z,10.5
2023-04-01T09:41:16.842Z,10.4
2023-04-01T09:42:24.068Z,10.4
2023-04-01T09:43:31.106Z,10.4
2023-04-01T09:44:38.255Z,10.4
2023-04-01T09:45:44.786Z,10.4
2023-04-01T09:46:51.964Z,10.4
2023-04-01T09:47:58.958Z,10.4
2023-04-01T09:49:06.222Z,10.4
2023-04-01T09:50:13.315Z,10.5
2023-04-01T09:51:19.951Z,10.5
2023-04-01T09:52:26.976Z,10.6
2023-04-01T09:53:34.558Z,10.5
2023-04-01T09:54:41.090Z,10.7
2023-04-01T09:55:48.248Z,10.7
2023-04-01T09:56:54.868Z,10.6
2023-04-01T09:58:01.856Z,10.6
2023-04-01T09:59:09.013Z,10.6
2023-04-01T10:00:16.237Z,10.6
2023-04-01T10:01:23.414Z,10.6
2023-04-01T10:02:29.770Z,10.7
2023-04-01T10:03:36.869Z,10.7
2023-04-01T10:04:44.008Z,10.7
2023-04-01T10:05:51.352Z,10.7
2023-04-01T10:06:58.262Z,10.7
2023-04-01T10:08:04.838Z,10.7
2023-04-01T10:10:19.070Z,10.8
2023-04-01T10:11:26.074Z,10.8
2023-04-01T10:12:33.271Z,10.8
2023-04-01T10:13:39.742Z,10.9
2023-04-01T10:14:46.916Z,10.8
2023-04-01T10:15:54.103Z,10.8
2023-04-01T10:17:01.160Z,10.8
2023-04-01T10:18:08.306Z,10.9
2023-04-01T10:19:14.920Z,11
2023-04-01T10:20:21.887Z,11
2023-04-01T10:21:29.066Z,11
2023-04-01T10:22:36.248Z,11
2023-04-01T10:23:43.389Z,11
2023-04-01T10:24:49.923Z,11
2023-04-01T10:25:56.889Z,11
2023-04-01T10:27:03.987Z,10.9
2023-04-01T10:28:11.343Z,10.9
2023-04-01T10:29:18.492Z,11
2023-04-01T10:30:24.966Z,10.9
2023-04-01T10:31:31.914Z,11
2023-04-01T10:32:39.104Z,11
2023-04-01T10:33:46.404Z,11
2023-04-01T10:34:53.230Z,11.1
2023-04-01T10:36:00.084Z,11.2
2023-04-01T10:37:07.066Z,11.1
2023-04-01T10:39:21.140Z,11.1
2023-04-01T10:40:28.286Z,11.1
2023-04-01T10:41:34.946Z,11.1
2023-04-01T10:42:42.080Z,11.1
2023-04-01T10:43:48.993Z,11.1
2023-04-01T10:44:56.140Z,11.1
2023-04-01T10:46:02.849Z,11.2
2023-04-01T10:47:09.892Z,11.3
2023-04-01T10:48:16.925Z,11.3
2023-04-01T10:49:24.072Z,11.3
2023-04-01T10:50:31.210Z,11.2
2023-04-01T10:51:38.471Z,11.2
2023-04-01T10:52:44.961Z,11.2
2023-04-01T10:53:51.928Z,11.2
2023-04-01T10:54:59.000Z,11.3
2023-04-01T10:56:06.270Z,11.3
2023-04-01T10:57:13.366Z,11.4
2023-04-01T10:58:19.888Z,11.4
2023-04-01T10:59:27.095Z,11.4
2023-04-01T11:00:34.199Z,11.4
2023-04-01T11:01:41.303Z,11.3
2023-04-01T11:02:48.279Z,11.3
2023-04-01T11:03:55.079Z,11.4
2023-04-01T11:05:13.284Z,11.4
2023-04-01T11:06:09.149Z,11.4
2023-04-01T11:07:38.913Z,11.3
2023-04-01T11:08:22.778Z,11.3
2023-04-01T11:09:30.085Z,11.4
2023-04-01T11:10:37.204Z,11.4
2023-04-01T11:11:44.049Z,11.4
2023-04-01T11:12:51.142Z,11.4
2023-04-01T11:13:57.851Z,11.4
2023-04-01T11:15:05.038Z,11.3
2023-04-01T11:16:12.130Z,11.3
2023-04-01T11:17:19.212Z,11.3
2023-04-01T11:18:26.302Z,11.3
2023-04-01T11:19:32.940Z,11.3
2023-04-01T11:20:39.917Z,11.3
2023-04-01T11:21:47.066Z,11.3
2023-04-01T11:22:54.083Z,11.3
2023-04-01T11:24:05.718Z,11.4
2023-04-01T11:25:07.872Z,11.4
2023-04-01T11:26:14.948Z,11.4
2023-04-01T11:27:22.113Z,11.4
2023-04-01T11:28:29.167Z,11.4
2023-04-01T11:29:37.468Z,11.4
2023-04-01T11:30:42.918Z,11.4
2023-04-01T11:31:50.062Z,11.4
2023-04-01T11:32:57.192Z,11.4
2023-04-01T11:34:04.106Z,11.4
2023-04-01T11:35:11.610Z,11.4
2023-04-01T11:36:17.845Z,11.5
2023-04-01T11:38:31.973Z,11.5
2023-04-01T11:39:39.286Z,11.4
2023-04-01T11:40:46.217Z,11.4
2023-04-01T11:42:59.937Z,11.4
2023-04-01T11:44:07.057Z,11.4
2023-04-01T11:45:14.116Z,11.4
2023-04-01T11:46:21.341Z,11.4
2023-04-01T11:47:27.996Z,11.4
2023-04-01T11:48:34.996Z,11.4
2023-04-01T11:49:42.292Z,11.4
2023-04-01T11:50:49.243Z,11.4
2023-04-01T11:51:56.216Z,11.4
2023-04-01T11:53:02.810Z,11.4
2023-04-01T11:54:10.094Z,11.4
2023-04-01T11:55:17.161Z,11.5
2023-04-01T11:56:24.129Z,11.5
2023-04-01T11:57:31.272Z,11.5
2023-04-01T11:58:37.907Z,11.6
2023-04-01T11:59:45.100Z,11.6
2023-04-01T12:00:52.626Z,11.5
2023-04-01T12:01:59.248Z,11.5
2023-04-01T12:03:06.515Z,11.4
2023-04-01T12:04:13.028Z,11.5
2023-04-01T12:05:20.070Z,11.5
2023-04-01T12:06:27.152Z,11.5
2023-04-01T12:07:34.152Z,11.5
2023-04-01T12:08:41.215Z,11.5
2023-04-01T12:09:47.954Z,11.6
2023-04-01T12:10:55.042Z,11.6
2023-04-01T12:12:02.197Z,11.5
2023-04-01T12:13:09.259Z,11.6
2023-04-01T12:14:16.416Z,11.5
2023-04-01T12:15:22.926Z,11.4
2023-04-01T12:16:29.929Z,11.4
2023-04-01T12:17:37.166Z,11.3
2023-04-01T12:18:44.260Z,11.4
2023-04-01T12:19:50.838Z,11.3
2023-04-01T12:20:57.821Z,11.3
2023-04-01T12:22:05.067Z,11.3
2023-04-01T12:23:12.181Z,11.3
2023-04-01T12:24:19.170Z,11.3
2023-04-01T12:25:25.854Z,11.4
2023-04-01T12:26:32.998Z,11.3
2023-04-01T12:27:40.060Z,11.3
2023-04-01T12:28:47.209Z,11.4
2023-04-01T12:29:54.210Z,11.3
2023-04-01T12:31:00.836Z,11.3
2023-04-01T12:32:10.599Z,11.2
2023-04-01T12:33:15.042Z,11.1
2023-04-01T12:34:22.119Z,11.1
2023-04-01T12:35:29.290Z,11
2023-04-01T12:36:35.870Z,11
2023-04-01T12:37:43.048Z,11
2023-04-01T12:38:49.945Z,11
2023-04-01T12:39:57.221Z,11
2023-04-01T12:41:04.262Z,11
2023-04-01T12:42:10.844Z,11
2023-04-01T12:43:17.942Z,11
2023-04-01T12:44:25.029Z,11
2023-04-01T12:46:39.158Z,11
2023-04-01T12:47:45.828Z,11
2023-04-01T12:48:54.791Z,11
2023-04-01T12:50:00.072Z,11
2023-04-01T12:51:07.829Z,11
2023-04-01T12:52:14.277Z,11
2023-04-01T12:53:20.863Z,11
2023-04-01T12:54:27.990Z,11
2023-04-01T12:55:35.116Z,11.1
2023-04-01T12:56:42.214Z,11.1
2023-04-01T12:57:49.172Z,11.2
2023-04-01T12:58:55.949Z,11.2
2023-04-01T13:00:02.969Z,11.3
2023-04-01T13:01:10.147Z,11.3
2023-04-01T13:02:17.219Z,11.3
2023-04-01T13:03:24.230Z,11.3
2023-04-01T13:04:31.336Z,11.3
2023-04-01T13:06:45.206Z,11.4
2023-04-01T13:07:52.183Z,11.4
2023-04-01T13:08:59.298Z,11.4
2023-04-01T13:10:06.116Z,11.4
2023-04-01T13:11:13.068Z,11.5
2023-04-01T13:12:20.138Z,11.5
2023-04-01T13:13:27.142Z,11.6
2023-04-01T13:14:34.420Z,11.5
2023-04-01T13:15:40.963Z,11.5
2023-04-01T13:16:47.893Z,11.6
2023-04-01T13:17:55.189Z,11.6
2023-04-01T13:19:02.286Z,11.6
2023-04-01T13:20:09.301Z,11.7
2023-04-01T13:21:15.937Z,11.7
2023-04-01T13:22:23.017Z,11.7
2023-04-01T13:23:30.003Z,11.7
2023-04-01T13:24:37.260Z,11.8
2023-04-01T13:25:44.391Z,11.8
2023-04-01T13:26:50.928Z,11.8
2023-04-01T13:27:58.026Z,11.8
2023-04-01T13:29:05.204Z,11.7
2023-04-01T13:30:12.259Z,11.8
2023-04-01T13:31:18.834Z,11.8
2023-04-01T13:32:40.785Z,11.8
2023-04-01T13:33:32.943Z,11.9
2023-04-01T13:34:40.023Z,11.9
2023-04-01T13:35:47.233Z,11.9
2023-04-01T13:36:53.768Z,11.9
2023-04-01T13:38:00.817Z,11.8
2023-04-01T13:39:07.920Z,11.8
2023-04-01T13:40:15.251Z,11.8
2023-04-01T13:41:22.156Z,11.8
2023-04-01T13:42:28.707Z,11.8
2023-04-01T13:43:35.855Z,11.8
2023-04-01T13:44:43.036Z,11.8
2023-04-01T13:45:50.036Z,11.8
2023-04-01T13:46:57.308Z,11.8
2023-04-01T13:48:03.905Z,11.8
2023-04-01T13:50:18.085Z,11.9
2023-04-01T13:51:25.174Z,11.9
2023-04-01T13:52:32.293Z,11.8
2023-04-01T13:53:38.848Z,11.8
2023-04-01T13:54:46.124Z,11.8
2023-04-01T13:55:53.141Z,11.8
2023-04-01T13:57:00.199Z,11.8
2023-04-01T13:58:07.261Z,11.9
2023-04-01T13:59:13.838Z,11.9
2023-04-01T14:00:20.944Z,11.9
2023-04-01T14:01:28.029Z,11.9
2023-04-01T14:02:35.103Z,11.9
2023-04-01T14:03:42.272Z,11.8
2023-04-01T14:04:48.880Z,11.9
2023-04-01T14:05:55.956Z,11.8
2023-04-01T14:07:03.079Z,11.8
2023-04-01T14:08:10.142Z,11.9
2023-04-01T14:09:17.393Z,11.9
2023-04-01T14:10:23.884Z,11.8
2023-04-01T14:11:30.859Z,11.9
2023-04-01T14:12:37.967Z,11.9
2023-04-01T14:13:45.181Z,11.9
2023-04-01T14:14:52.244Z,11.9
2023-04-01T14:15:58.969Z,11.8
2023-04-01T14:17:05.908Z,11.9
2023-04-01T14:18:13.122Z,11.8
2023-04-01T14:19:20.144Z,11.8
2023-04-01T14:20:27.273Z,11.8
2023-04-01T14:21:34.096Z,11.8
2023-04-01T14:22:40.969Z,11.8
2023-04-01T14:23:48.088Z,11.8
2023-04-01T14:24:55.258Z,11.8
2023-04-01T14:26:02.224Z,11.7
2023-04-01T14:27:08.780Z,11.7
2023-04-01T14:28:15.925Z,11.6
2023-04-01T14:29:23.157Z,11.6
2023-04-01T14:30:30.099Z,11.6
2023-04-01T14:31:36.854Z,11.6
2023-04-01T14:32:43.852Z,11.6
2023-04-01T14:34:58.097Z,11.4
2023-04-01T14:36:05.285Z,11.4
2023-04-01T14:37:11.733Z,11.4
2023-04-01T14:38:18.977Z,11.4
2023-04-01T14:39:25.952Z,11.4
2023-04-01T14:40:33.164Z,11.5
2023-04-01T14:41:40.114Z,11.5
2023-04-01T14:42:46.835Z,11.6
2023-04-01T14:43:53.830Z,11.5
2023-04-01T14:45:01.016Z,11.5
2023-04-01T14:46:08.034Z,11.6
2023-04-01T14:47:15.117Z,11.5
2023-04-01T14:48:21.819Z,11.5
2023-04-01T14:49:28.946Z,11.4
2023-04-01T14:50:36.056Z,11.4
2023-04-01T14:51:43.050Z,11.3
2023-04-01T14:53:56.731Z,11.3
2023-04-01T14:55:03.970Z,11.3
2023-04-01T14:56:11.051Z,11.3
2023-04-01T14:57:18.160Z,11.4
2023-04-01T14:58:25.239Z,11.4
2023-04-01T14:59:31.862Z,11.5
2023-04-01T15:00:38.823Z,11.5
2023-04-01T15:01:48.769Z,11.6
2023-04-01T15:02:53.246Z,11.6
2023-04-01T15:04:00.223Z,11.7
2023-04-01T15:05:06.868Z,11.7
2023-04-01T15:06:13.949Z,11.7
2023-04-01T15:07:21.016Z,11.7
2023-04-01T15:08:28.227Z,11.7
2023-04-01T15:09:35.263Z,11.7
2023-04-01T15:10:42.927Z,11.6
2023-04-01T15:11:49.453Z,11.6
2023-04-01T15:12:55.977Z,11.6
2023-04-01T15:14:03.123Z,11.6
2023-04-01T15:15:10.348Z,11.7
2023-04-01T15:16:16.903Z,11.7
2023-04-01T15:17:24.024Z,11.7
2023-04-01T15:18:30.948Z,11.6
2023-04-01T15:19:38.293Z,11.6
2023-04-01T15:20:45.193Z,11.6
2023-04-01T15:21:51.789Z,11.6
2023-04-01T15:22:58.859Z,11.6
2023-04-01T15:24:06.085Z,11.5
2023-04-01T15:25:13.241Z,11.4
2023-04-01T15:26:20.167Z,11.4
2023-04-01T15:27:26.919Z,11.4
2023-04-01T15:28:34.059Z,11.3
2023-04-01T15:29:41.186Z,11.3
2023-04-01T15:30:48.266Z,11.3
2023-04-01T15:31:54.826Z,11.3
2023-04-01T15:33:01.971Z,11.3
2023-04-01T15:34:08.982Z,11.2
2023-04-01T15:35:16.011Z,11.2
2023-04-01T15:36:23.312Z,11.2
2023-04-01T15:37:29.821Z,11.2
2023-04-01T15:38:36.824Z,11.1
2023-04-01T15:39:44.070Z,11.2
2023-04-01T15:40:51.143Z,11.1
2023-04-01T15:41:58.239Z,11.1